sensor_id;sensor_type;location;lat;lon;timestamp;P1;durP1;ratioP1;P2;durP2;ratioP2
21661;SDS011;10992;48.170;8.596;2023-06-01T00:02:23;8.02;;;4.05;;
21661;SDS011;10992;48.170;8.596;2023-06-01T00:04:50;8.88;;;3.53;;
21661;SDS011;10992;48.170;8.596;2023-06-01T00:07:18;5.18;;;3.60;;
21661;SDS011;10992;48.170;8.596;2023-06-01T00:09:47;6.85;;;3.47;;
21661;SDS011;10992;48.170;8.596;2023-06-01T00:12:14;5.85;;;3.50;;
21661;SDS011;10992;48.170;8.596;2023-06-01T00:14:41;6.10;;;3.28;;
21661;SDS011;10992;48.170;8.596;2023-06-01T00:17:08;5.85;;;3.35;;
21661;SDS011;10992;48.170;8.596;2023-06-01T00:19:36;8.85;;;3.75;;
21661;SDS011;10992;48.170;8.596;2023-06-01T00:22:05;7.88;;;3.35;;
21661;SDS011;10992;48.170;8.596;2023-06-01T00:24:33;4.40;;;2.55;;
21661;SDS011;10992;48.170;8.596;2023-06-01T00:27:00;7.55;;;3.13;;
21661;SDS011;10992;48.170;8.596;2023-06-01T00:29:28;7.95;;;3.58;;
21661;SDS011;10992;48.170;8.596;2023-06-01T00:31:56;7.88;;;3.95;;
21661;SDS011;10992;48.170;8.596;2023-06-01T00:34:23;4.50;;;2.90;;
21661;SDS011;10992;48.170;8.596;2023-06-01T00:36:51;5.55;;;3.03;;
21661;SDS011;10992;48.170;8.596;2023-06-01T00:39:18;8.05;;;3.35;;
21661;SDS011;10992;48.170;8.596;2023-06-01T00:41:45;5.13;;;2.90;;
21661;SDS011;10992;48.170;8.596;2023-06-01T00:44:12;5.38;;;3.33;;
21661;SDS011;10992;48.170;8.596;2023-06-01T00:46:39;5.43;;;3.40;;
21661;SDS011;10992;48.170;8.596;2023-06-01T00:49:06;8.25;;;3.45;;
21661;SDS011;10992;48.170;8.596;2023-06-01T00:51:34;4.70;;;3.10;;
21661;SDS011;10992;48.170;8.596;2023-06-01T00:54:01;6.05;;;2.80;;
21661;SDS011;10992;48.170;8.596;2023-06-01T00:56:29;5.47;;;3.25;;
21661;SDS011;10992;48.170;8.596;2023-06-01T00:58:58;6.38;;;3.58;;
21661;SDS011;10992;48.170;8.596;2023-06-01T01:01:25;5.10;;;2.92;;
21661;SDS011;10992;48.170;8.596;2023-06-01T01:03:52;6.05;;;3.13;;
21661;SDS011;10992;48.170;8.596;2023-06-01T01:06:28;6.90;;;3.47;;
21661;SDS011;10992;48.170;8.596;2023-06-01T01:11:51;7.60;;;3.88;;
21661;SDS011;10992;48.170;8.596;2023-06-01T01:14:25;5.53;;;3.15;;
21661;SDS011;10992;48.170;8.596;2023-06-01T01:17:09;7.75;;;3.63;;
21661;SDS011;10992;48.170;8.596;2023-06-01T01:19:54;6.05;;;3.00;;
21661;SDS011;10992;48.170;8.596;2023-06-01T01:30:40;6.45;;;3.63;;
21661;SDS011;10992;48.170;8.596;2023-06-01T01:33:09;9.27;;;3.50;;
21661;SDS011;10992;48.170;8.596;2023-06-01T01:35:37;6.53;;;3.35;;
21661;SDS011;10992;48.170;8.596;2023-06-01T01:38:05;4.82;;;3.10;;
21661;SDS011;10992;48.170;8.596;2023-06-01T01:40:31;6.15;;;3.75;;
21661;SDS011;10992;48.170;8.596;2023-06-01T01:42:58;6.18;;;3.50;;
21661;SDS011;10992;48.170;8.596;2023-06-01T01:45:27;7.63;;;3.60;;
21661;SDS011;10992;48.170;8.596;2023-06-01T01:48:01;9.65;;;4.05;;
21661;SDS011;10992;48.170;8.596;2023-06-01T01:50:37;7.43;;;3.03;;
21661;SDS011;10992;48.170;8.596;2023-06-01T01:53:12;6.13;;;3.35;;
21661;SDS011;10992;48.170;8.596;2023-06-01T01:55:40;5.57;;;3.38;;
21661;SDS011;10992;48.170;8.596;2023-06-01T01:58:07;6.72;;;2.88;;
21661;SDS011;10992;48.170;8.596;2023-06-01T02:00:34;5.30;;;3.00;;
21661;SDS011;10992;48.170;8.596;2023-06-01T02:03:01;5.82;;;3.60;;
21661;SDS011;10992;48.170;8.596;2023-06-01T02:05:29;7.22;;;3.33;;
21661;SDS011;10992;48.170;8.596;2023-06-01T02:07:56;6.88;;;3.30;;
21661;SDS011;10992;48.170;8.596;2023-06-01T02:10:22;7.35;;;3.72;;
21661;SDS011;10992;48.170;8.596;2023-06-01T02:12:49;5.72;;;3.22;;
21661;SDS011;10992;48.170;8.596;2023-06-01T02:15:17;5.65;;;3.30;;
21661;SDS011;10992;48.170;8.596;2023-06-01T02:17:44;6.80;;;3.38;;
21661;SDS011;10992;48.170;8.596;2023-06-01T02:20:12;5.40;;;3.05;;
21661;SDS011;10992;48.170;8.596;2023-06-01T02:22:40;4.80;;;3.08;;
21661;SDS011;10992;48.170;8.596;2023-06-01T02:25:07;4.90;;;3.50;;
21661;SDS011;10992;48.170;8.596;2023-06-01T02:27:34;6.53;;;3.35;;
21661;SDS011;10992;48.170;8.596;2023-06-01T02:30:01;5.60;;;3.20;;
21661;SDS011;10992;48.170;8.596;2023-06-01T02:32:28;6.00;;;3.42;;
21661;SDS011;10992;48.170;8.596;2023-06-01T02:34:57;14.00;;;4.05;;
21661;SDS011;10992;48.170;8.596;2023-06-01T02:37:24;4.93;;;2.92;;
21661;SDS011;10992;48.170;8.596;2023-06-01T02:39:51;6.97;;;3.28;;
21661;SDS011;10992;48.170;8.596;2023-06-01T02:42:20;5.07;;;3.67;;
21661;SDS011;10992;48.170;8.596;2023-06-01T02:44:47;5.65;;;3.40;;
21661;SDS011;10992;48.170;8.596;2023-06-01T02:47:14;7.65;;;3.60;;
21661;SDS011;10992;48.170;8.596;2023-06-01T02:49:41;6.43;;;3.47;;
21661;SDS011;10992;48.170;8.596;2023-06-01T02:52:08;5.68;;;3.83;;
21661;SDS011;10992;48.170;8.596;2023-06-01T02:54:35;5.13;;;3.70;;
21661;SDS011;10992;48.170;8.596;2023-06-01T02:57:18;6.63;;;3.40;;
21661;SDS011;10992;48.170;8.596;2023-06-01T02:59:50;8.13;;;3.85;;
21661;SDS011;10992;48.170;8.596;2023-06-01T03:02:17;7.60;;;3.40;;
21661;SDS011;10992;48.170;8.596;2023-06-01T03:04:44;7.75;;;3.53;;
21661;SDS011;10992;48.170;8.596;2023-06-01T03:07:12;4.57;;;3.20;;
21661;SDS011;10992;48.170;8.596;2023-06-01T03:09:47;6.50;;;3.35;;
21661;SDS011;10992;48.170;8.596;2023-06-01T03:12:34;5.90;;;3.42;;
21661;SDS011;10992;48.170;8.596;2023-06-01T03:15:01;5.97;;;3.47;;
21661;SDS011;10992;48.170;8.596;2023-06-01T03:17:28;5.35;;;3.63;;
21661;SDS011;10992;48.170;8.596;2023-06-01T03:19:55;5.78;;;3.55;;
21661;SDS011;10992;48.170;8.596;2023-06-01T03:22:22;9.30;;;3.60;;
21661;SDS011;10992;48.170;8.596;2023-06-01T03:24:50;6.10;;;3.78;;
21661;SDS011;10992;48.170;8.596;2023-06-01T03:27:24;5.70;;;3.85;;
21661;SDS011;10992;48.170;8.596;2023-06-01T03:29:51;9.00;;;3.85;;
21661;SDS011;10992;48.170;8.596;2023-06-01T03:32:18;9.27;;;3.90;;
21661;SDS011;10992;48.170;8.596;2023-06-01T03:34:45;7.60;;;3.03;;
21661;SDS011;10992;48.170;8.596;2023-06-01T03:37:13;6.82;;;3.55;;
21661;SDS011;10992;48.170;8.596;2023-06-01T03:39:40;5.45;;;3.50;;
21661;SDS011;10992;48.170;8.596;2023-06-01T03:42:10;5.97;;;3.58;;
21661;SDS011;10992;48.170;8.596;2023-06-01T03:44:38;7.53;;;3.75;;
21661;SDS011;10992;48.170;8.596;2023-06-01T03:47:06;5.35;;;3.40;;
21661;SDS011;10992;48.170;8.596;2023-06-01T03:49:33;6.10;;;3.30;;
21661;SDS011;10992;48.170;8.596;2023-06-01T03:52:03;4.35;;;2.97;;
21661;SDS011;10992;48.170;8.596;2023-06-01T03:54:31;6.78;;;3.13;;
21661;SDS011;10992;48.170;8.596;2023-06-01T03:56:58;8.63;;;2.90;;
21661;SDS011;10992;48.170;8.596;2023-06-01T03:59:26;6.18;;;3.55;;
21661;SDS011;10992;48.170;8.596;2023-06-01T04:01:53;6.47;;;3.80;;
21661;SDS011;10992;48.170;8.596;2023-06-01T04:04:20;5.20;;;3.08;;
21661;SDS011;10992;48.170;8.596;2023-06-01T04:06:51;6.18;;;3.35;;
21661;SDS011;10992;48.170;8.596;2023-06-01T04:09:18;6.45;;;3.40;;
21661;SDS011;10992;48.170;8.596;2023-06-01T04:11:45;5.80;;;3.60;;
21661;SDS011;10992;48.170;8.596;2023-06-01T04:14:13;5.07;;;3.65;;
21661;SDS011;10992;48.170;8.596;2023-06-01T04:16:41;5.07;;;3.10;;
21661;SDS011;10992;48.170;8.596;2023-06-01T04:19:08;6.68;;;3.83;;
21661;SDS011;10992;48.170;8.596;2023-06-01T04:21:36;6.45;;;3.13;;
21661;SDS011;10992;48.170;8.596;2023-06-01T04:24:03;6.90;;;3.75;;
21661;SDS011;10992;48.170;8.596;2023-06-01T04:26:30;4.63;;;2.92;;
21661;SDS011;10992;48.170;8.596;2023-06-01T04:29:02;4.75;;;2.90;;
21661;SDS011;10992;48.170;8.596;2023-06-01T04:31:30;4.88;;;2.92;;
21661;SDS011;10992;48.170;8.596;2023-06-01T04:33:59;10.25;;;3.55;;
21661;SDS011;10992;48.170;8.596;2023-06-01T04:36:28;5.47;;;3.40;;
21661;SDS011;10992;48.170;8.596;2023-06-01T04:39:01;6.45;;;3.35;;
21661;SDS011;10992;48.170;8.596;2023-06-01T04:41:29;7.03;;;3.75;;
21661;SDS011;10992;48.170;8.596;2023-06-01T04:43:59;5.85;;;2.97;;
21661;SDS011;10992;48.170;8.596;2023-06-01T04:46:27;6.65;;;3.55;;
21661;SDS011;10992;48.170;8.596;2023-06-01T04:48:57;4.35;;;3.05;;
21661;SDS011;10992;48.170;8.596;2023-06-01T04:51:27;6.53;;;2.75;;
21661;SDS011;10992;48.170;8.596;2023-06-01T04:53:55;7.38;;;3.63;;
21661;SDS011;10992;48.170;8.596;2023-06-01T04:56:23;6.43;;;3.30;;
21661;SDS011;10992;48.170;8.596;2023-06-01T04:58:53;5.05;;;3.22;;
21661;SDS011;10992;48.170;8.596;2023-06-01T05:01:22;5.20;;;3.03;;
21661;SDS011;10992;48.170;8.596;2023-06-01T05:03:52;6.63;;;3.30;;
21661;SDS011;10992;48.170;8.596;2023-06-01T05:06:22;7.32;;;3.22;;
21661;SDS011;10992;48.170;8.596;2023-06-01T05:08:51;4.78;;;2.58;;
21661;SDS011;10992;48.170;8.596;2023-06-01T05:11:18;4.20;;;2.50;;
21661;SDS011;10992;48.170;8.596;2023-06-01T05:13:45;6.45;;;2.90;;
21661;SDS011;10992;48.170;8.596;2023-06-01T05:16:12;5.07;;;2.97;;
21661;SDS011;10992;48.170;8.596;2023-06-01T05:18:40;4.55;;;2.50;;
21661;SDS011;10992;48.170;8.596;2023-06-01T05:21:08;7.97;;;3.17;;
21661;SDS011;10992;48.170;8.596;2023-06-01T05:23:34;4.80;;;2.75;;
21661;SDS011;10992;48.170;8.596;2023-06-01T05:26:01;5.50;;;2.85;;
21661;SDS011;10992;48.170;8.596;2023-06-01T05:28:33;4.13;;;2.70;;
21661;SDS011;10992;48.170;8.596;2023-06-01T05:31:04;7.10;;;2.63;;
21661;SDS011;10992;48.170;8.596;2023-06-01T05:33:37;4.40;;;2.47;;
21661;SDS011;10992;48.170;8.596;2023-06-01T05:36:04;6.70;;;2.78;;
21661;SDS011;10992;48.170;8.596;2023-06-01T05:38:32;4.28;;;2.38;;
21661;SDS011;10992;48.170;8.596;2023-06-01T05:40:59;6.55;;;2.70;;
21661;SDS011;10992;48.170;8.596;2023-06-01T05:43:26;9.23;;;3.13;;
21661;SDS011;10992;48.170;8.596;2023-06-01T05:45:54;5.68;;;2.80;;
21661;SDS011;10992;48.170;8.596;2023-06-01T05:48:21;5.45;;;2.78;;
21661;SDS011;10992;48.170;8.596;2023-06-01T05:50:51;5.07;;;2.88;;
21661;SDS011;10992;48.170;8.596;2023-06-01T05:53:19;4.75;;;2.80;;
21661;SDS011;10992;48.170;8.596;2023-06-01T05:55:49;5.82;;;2.63;;
21661;SDS011;10992;48.170;8.596;2023-06-01T05:58:18;6.55;;;3.47;;
21661;SDS011;10992;48.170;8.596;2023-06-01T06:00:46;8.45;;;3.00;;
21661;SDS011;10992;48.170;8.596;2023-06-01T06:03:13;4.72;;;2.78;;
21661;SDS011;10992;48.170;8.596;2023-06-01T06:05:40;5.97;;;2.78;;
21661;SDS011;10992;48.170;8.596;2023-06-01T06:08:07;6.82;;;2.95;;
21661;SDS011;10992;48.170;8.596;2023-06-01T06:10:36;5.03;;;3.28;;
21661;SDS011;10992;48.170;8.596;2023-06-01T06:13:03;5.35;;;3.17;;
21661;SDS011;10992;48.170;8.596;2023-06-01T06:15:30;7.72;;;3.25;;
21661;SDS011;10992;48.170;8.596;2023-06-01T06:17:57;6.93;;;3.22;;
21661;SDS011;10992;48.170;8.596;2023-06-01T06:20:24;4.80;;;2.65;;
21661;SDS011;10992;48.170;8.596;2023-06-01T06:22:51;5.40;;;3.05;;
21661;SDS011;10992;48.170;8.596;2023-06-01T06:25:19;6.32;;;2.80;;
21661;SDS011;10992;48.170;8.596;2023-06-01T06:27:46;5.22;;;2.85;;
21661;SDS011;10992;48.170;8.596;2023-06-01T06:30:14;5.05;;;2.72;;
21661;SDS011;10992;48.170;8.596;2023-06-01T06:32:41;5.68;;;2.60;;
21661;SDS011;10992;48.170;8.596;2023-06-01T06:35:08;4.47;;;2.70;;
21661;SDS011;10992;48.170;8.596;2023-06-01T06:37:39;4.50;;;3.20;;
21661;SDS011;10992;48.170;8.596;2023-06-01T06:40:08;4.97;;;2.90;;
21661;SDS011;10992;48.170;8.596;2023-06-01T06:42:35;5.53;;;3.20;;
21661;SDS011;10992;48.170;8.596;2023-06-01T06:45:02;6.80;;;3.60;;
21661;SDS011;10992;48.170;8.596;2023-06-01T06:47:31;8.13;;;3.42;;
21661;SDS011;10992;48.170;8.596;2023-06-01T06:49:58;4.40;;;2.88;;
21661;SDS011;10992;48.170;8.596;2023-06-01T06:52:25;6.18;;;2.95;;
21661;SDS011;10992;48.170;8.596;2023-06-01T06:54:54;5.20;;;3.25;;
21661;SDS011;10992;48.170;8.596;2023-06-01T06:57:21;3.80;;;2.53;;
21661;SDS011;10992;48.170;8.596;2023-06-01T06:59:48;6.90;;;3.10;;
21661;SDS011;10992;48.170;8.596;2023-06-01T07:02:15;5.35;;;2.70;;
21661;SDS011;10992;48.170;8.596;2023-06-01T07:04:41;6.70;;;3.47;;
21661;SDS011;10992;48.170;8.596;2023-06-01T07:07:09;5.53;;;3.17;;
21661;SDS011;10992;48.170;8.596;2023-06-01T07:09:36;6.32;;;3.38;;
21661;SDS011;10992;48.170;8.596;2023-06-01T07:12:03;6.40;;;3.20;;
21661;SDS011;10992;48.170;8.596;2023-06-01T07:14:30;10.10;;;3.13;;
21661;SDS011;10992;48.170;8.596;2023-06-01T07:16:57;9.93;;;3.55;;
21661;SDS011;10992;48.170;8.596;2023-06-01T07:19:23;5.50;;;3.05;;
21661;SDS011;10992;48.170;8.596;2023-06-01T07:21:50;8.75;;;3.42;;
21661;SDS011;10992;48.170;8.596;2023-06-01T07:24:18;6.03;;;3.25;;
21661;SDS011;10992;48.170;8.596;2023-06-01T07:26:48;5.80;;;2.97;;
21661;SDS011;10992;48.170;8.596;2023-06-01T07:29:17;5.57;;;3.50;;
21661;SDS011;10992;48.170;8.596;2023-06-01T07:31:44;6.47;;;3.50;;
21661;SDS011;10992;48.170;8.596;2023-06-01T07:34:11;6.88;;;3.45;;
21661;SDS011;10992;48.170;8.596;2023-06-01T07:36:39;7.05;;;3.38;;
21661;SDS011;10992;48.170;8.596;2023-06-01T07:39:06;8.10;;;3.83;;
21661;SDS011;10992;48.170;8.596;2023-06-01T07:41:35;4.45;;;3.25;;
21661;SDS011;10992;48.170;8.596;2023-06-01T07:44:02;4.90;;;3.17;;
21661;SDS011;10992;48.170;8.596;2023-06-01T07:46:29;5.95;;;3.67;;
21661;SDS011;10992;48.170;8.596;2023-06-01T07:48:56;6.60;;;3.60;;
21661;SDS011;10992;48.170;8.596;2023-06-01T07:51:23;7.43;;;3.88;;
21661;SDS011;10992;48.170;8.596;2023-06-01T07:53:51;8.73;;;4.15;;
21661;SDS011;10992;48.170;8.596;2023-06-01T07:56:18;6.00;;;3.40;;
21661;SDS011;10992;48.170;8.596;2023-06-01T07:58:45;5.57;;;3.75;;
21661;SDS011;10992;48.170;8.596;2023-06-01T08:01:12;6.13;;;3.70;;
21661;SDS011;10992;48.170;8.596;2023-06-01T08:03:42;5.05;;;3.00;;
21661;SDS011;10992;48.170;8.596;2023-06-01T08:06:09;5.97;;;3.35;;
21661;SDS011;10992;48.170;8.596;2023-06-01T08:08:38;6.53;;;3.28;;
21661;SDS011;10992;48.170;8.596;2023-06-01T08:11:05;5.32;;;3.30;;
21661;SDS011;10992;48.170;8.596;2023-06-01T08:13:32;4.72;;;3.35;;
21661;SDS011;10992;48.170;8.596;2023-06-01T08:16:02;6.28;;;3.50;;
21661;SDS011;10992;48.170;8.596;2023-06-01T08:18:30;5.28;;;3.58;;
21661;SDS011;10992;48.170;8.596;2023-06-01T08:20:57;9.25;;;3.95;;
21661;SDS011;10992;48.170;8.596;2023-06-01T08:23:26;6.65;;;3.63;;
21661;SDS011;10992;48.170;8.596;2023-06-01T08:26:01;6.30;;;3.10;;
21661;SDS011;10992;48.170;8.596;2023-06-01T08:28:34;5.22;;;3.53;;
21661;SDS011;10992;48.170;8.596;2023-06-01T08:31:01;5.15;;;3.47;;
21661;SDS011;10992;48.170;8.596;2023-06-01T08:33:28;8.85;;;4.05;;
21661;SDS011;10992;48.170;8.596;2023-06-01T08:35:55;5.88;;;3.75;;
21661;SDS011;10992;48.170;8.596;2023-06-01T08:38:22;5.90;;;3.53;;
21661;SDS011;10992;48.170;8.596;2023-06-01T08:40:49;6.72;;;3.45;;
21661;SDS011;10992;48.170;8.596;2023-06-01T08:45:47;7.05;;;3.88;;
21661;SDS011;10992;48.170;8.596;2023-06-01T08:48:17;6.95;;;3.60;;
21661;SDS011;10992;48.170;8.596;2023-06-01T08:50:50;6.20;;;3.58;;
21661;SDS011;10992;48.170;8.596;2023-06-01T08:53:19;5.78;;;3.35;;
21661;SDS011;10992;48.170;8.596;2023-06-01T08:55:51;7.85;;;3.88;;
21661;SDS011;10992;48.170;8.596;2023-06-01T08:58:19;9.68;;;4.10;;
21661;SDS011;10992;48.170;8.596;2023-06-01T09:00:49;4.80;;;3.60;;
21661;SDS011;10992;48.170;8.596;2023-06-01T09:03:20;7.85;;;3.75;;
21661;SDS011;10992;48.170;8.596;2023-06-01T09:05:47;6.05;;;3.50;;
21661;SDS011;10992;48.170;8.596;2023-06-01T09:08:14;7.25;;;4.00;;
21661;SDS011;10992;48.170;8.596;2023-06-01T09:10:41;8.13;;;4.05;;
21661;SDS011;10992;48.170;8.596;2023-06-01T09:13:08;6.47;;;3.65;;
21661;SDS011;10992;48.170;8.596;2023-06-01T09:15:35;6.07;;;3.75;;
21661;SDS011;10992;48.170;8.596;2023-06-01T09:18:18;6.90;;;3.92;;
21661;SDS011;10992;48.170;8.596;2023-06-01T09:20:44;8.38;;;4.30;;
21661;SDS011;10992;48.170;8.596;2023-06-01T09:23:12;5.82;;;3.80;;
21661;SDS011;10992;48.170;8.596;2023-06-01T09:26:03;9.60;;;3.85;;
21661;SDS011;10992;48.170;8.596;2023-06-01T09:28:53;6.03;;;3.78;;
21661;SDS011;10992;48.170;8.596;2023-06-01T09:31:36;7.95;;;3.85;;
21661;SDS011;10992;48.170;8.596;2023-06-01T09:34:06;6.57;;;4.03;;
21661;SDS011;10992;48.170;8.596;2023-06-01T09:36:54;5.07;;;3.70;;
21661;SDS011;10992;48.170;8.596;2023-06-01T09:39:22;6.03;;;4.28;;
21661;SDS011;10992;48.170;8.596;2023-06-01T09:41:54;5.65;;;4.10;;
21661;SDS011;10992;48.170;8.596;2023-06-01T09:44:25;8.15;;;3.90;;
21661;SDS011;10992;48.170;8.596;2023-06-01T09:46:55;5.78;;;3.55;;
21661;SDS011;10992;48.170;8.596;2023-06-01T09:49:27;5.55;;;3.40;;
21661;SDS011;10992;48.170;8.596;2023-06-01T09:54:36;4.85;;;3.65;;
21661;SDS011;10992;48.170;8.596;2023-06-01T09:57:22;6.85;;;3.95;;
21661;SDS011;10992;48.170;8.596;2023-06-01T09:59:50;6.07;;;3.80;;
21661;SDS011;10992;48.170;8.596;2023-06-01T10:02:18;4.55;;;3.47;;
21661;SDS011;10992;48.170;8.596;2023-06-01T10:04:50;5.88;;;4.10;;
21661;SDS011;10992;48.170;8.596;2023-06-01T10:07:19;7.75;;;3.60;;
21661;SDS011;10992;48.170;8.596;2023-06-01T10:09:55;5.93;;;3.85;;
21661;SDS011;10992;48.170;8.596;2023-06-01T10:12:25;6.13;;;3.85;;
21661;SDS011;10992;48.170;8.596;2023-06-01T10:14:55;7.00;;;3.67;;
21661;SDS011;10992;48.170;8.596;2023-06-01T10:17:23;6.93;;;3.53;;
21661;SDS011;10992;48.170;8.596;2023-06-01T10:19:50;6.35;;;3.90;;
21661;SDS011;10992;48.170;8.596;2023-06-01T10:22:18;4.57;;;3.70;;
21661;SDS011;10992;48.170;8.596;2023-06-01T10:24:45;5.68;;;3.78;;
21661;SDS011;10992;48.170;8.596;2023-06-01T10:27:15;6.18;;;4.10;;
21661;SDS011;10992;48.170;8.596;2023-06-01T10:29:43;7.28;;;4.05;;
21661;SDS011;10992;48.170;8.596;2023-06-01T10:35:07;5.47;;;3.50;;
21661;SDS011;10992;48.170;8.596;2023-06-01T10:37:36;6.57;;;4.10;;
21661;SDS011;10992;48.170;8.596;2023-06-01T10:42:43;6.25;;;3.65;;
21661;SDS011;10992;48.170;8.596;2023-06-01T10:48:01;7.18;;;3.83;;
21661;SDS011;10992;48.170;8.596;2023-06-01T10:50:29;6.40;;;3.88;;
21661;SDS011;10992;48.170;8.596;2023-06-01T10:52:57;6.78;;;3.83;;
21661;SDS011;10992;48.170;8.596;2023-06-01T10:58:44;5.38;;;3.75;;
21661;SDS011;10992;48.170;8.596;2023-06-01T11:01:11;6.78;;;3.80;;
21661;SDS011;10992;48.170;8.596;2023-06-01T11:03:46;5.65;;;3.83;;
21661;SDS011;10992;48.170;8.596;2023-06-01T11:06:28;6.03;;;3.92;;
21661;SDS011;10992;48.170;8.596;2023-06-01T11:08:59;5.75;;;4.20;;
21661;SDS011;10992;48.170;8.596;2023-06-01T11:14:22;6.35;;;4.38;;
21661;SDS011;10992;48.170;8.596;2023-06-01T11:16:53;6.60;;;4.15;;
21661;SDS011;10992;48.170;8.596;2023-06-01T11:19:21;5.60;;;3.55;;
21661;SDS011;10992;48.170;8.596;2023-06-01T11:21:55;6.20;;;3.88;;
21661;SDS011;10992;48.170;8.596;2023-06-01T11:24:37;6.93;;;4.00;;
21661;SDS011;10992;48.170;8.596;2023-06-01T11:27:08;6.63;;;4.00;;
21661;SDS011;10992;48.170;8.596;2023-06-01T11:29:36;7.63;;;3.95;;
21661;SDS011;10992;48.170;8.596;2023-06-01T11:32:04;4.57;;;3.60;;
21661;SDS011;10992;48.170;8.596;2023-06-01T11:34:36;7.88;;;4.03;;
21661;SDS011;10992;48.170;8.596;2023-06-01T11:37:05;5.50;;;3.95;;
21661;SDS011;10992;48.170;8.596;2023-06-01T11:39:38;4.95;;;3.30;;
21661;SDS011;10992;48.170;8.596;2023-06-01T11:44:38;4.60;;;3.50;;
21661;SDS011;10992;48.170;8.596;2023-06-01T11:47:07;5.97;;;4.20;;
21661;SDS011;10992;48.170;8.596;2023-06-01T11:52:16;6.35;;;4.13;;
21661;SDS011;10992;48.170;8.596;2023-06-01T11:54:44;6.72;;;3.55;;
21661;SDS011;10992;48.170;8.596;2023-06-01T11:57:11;6.93;;;4.05;;
21661;SDS011;10992;48.170;8.596;2023-06-01T11:59:48;5.63;;;3.47;;
21661;SDS011;10992;48.170;8.596;2023-06-01T12:02:17;6.40;;;3.58;;
21661;SDS011;10992;48.170;8.596;2023-06-01T12:07:26;6.20;;;4.18;;
21661;SDS011;10992;48.170;8.596;2023-06-01T12:09:54;6.18;;;3.67;;
21661;SDS011;10992;48.170;8.596;2023-06-01T12:12:23;7.82;;;4.10;;
21661;SDS011;10992;48.170;8.596;2023-06-01T12:14:52;5.70;;;4.13;;
21661;SDS011;10992;48.170;8.596;2023-06-01T12:17:19;4.88;;;3.95;;
21661;SDS011;10992;48.170;8.596;2023-06-01T12:19:47;5.50;;;4.00;;
21661;SDS011;10992;48.170;8.596;2023-06-01T12:22:15;7.55;;;4.30;;
21661;SDS011;10992;48.170;8.596;2023-06-01T12:24:43;6.75;;;4.05;;
21661;SDS011;10992;48.170;8.596;2023-06-01T12:27:15;6.47;;;4.35;;
21661;SDS011;10992;48.170;8.596;2023-06-01T12:29:44;5.18;;;3.80;;
21661;SDS011;10992;48.170;8.596;2023-06-01T12:32:16;6.00;;;3.95;;
21661;SDS011;10992;48.170;8.596;2023-06-01T12:35:01;6.03;;;4.10;;
21661;SDS011;10992;48.170;8.596;2023-06-01T12:37:29;5.25;;;3.70;;
21661;SDS011;10992;48.170;8.596;2023-06-01T12:39:56;6.30;;;3.60;;
21661;SDS011;10992;48.170;8.596;2023-06-01T12:42:39;5.60;;;3.95;;
21661;SDS011;10992;48.170;8.596;2023-06-01T12:45:07;5.07;;;3.35;;
21661;SDS011;10992;48.170;8.596;2023-06-01T12:47:35;5.03;;;4.10;;
21661;SDS011;10992;48.170;8.596;2023-06-01T12:50:07;5.28;;;3.60;;
21661;SDS011;10992;48.170;8.596;2023-06-01T12:52:36;8.98;;;4.00;;
21661;SDS011;10992;48.170;8.596;2023-06-01T12:55:03;7.03;;;3.80;;
21661;SDS011;10992;48.170;8.596;2023-06-01T12:57:31;5.95;;;3.80;;
21661;SDS011;10992;48.170;8.596;2023-06-01T12:59:58;7.20;;;4.07;;
21661;SDS011;10992;48.170;8.596;2023-06-01T13:02:26;5.90;;;3.90;;
21661;SDS011;10992;48.170;8.596;2023-06-01T13:04:53;7.40;;;4.32;;
21661;SDS011;10992;48.170;8.596;2023-06-01T13:07:20;5.80;;;3.85;;
21661;SDS011;10992;48.170;8.596;2023-06-01T13:09:50;5.90;;;3.65;;
21661;SDS011;10992;48.170;8.596;2023-06-01T13:12:17;5.20;;;3.50;;
21661;SDS011;10992;48.170;8.596;2023-06-01T13:14:44;7.40;;;3.88;;
21661;SDS011;10992;48.170;8.596;2023-06-01T13:17:11;6.05;;;4.03;;
21661;SDS011;10992;48.170;8.596;2023-06-01T13:19:39;7.22;;;3.80;;
21661;SDS011;10992;48.170;8.596;2023-06-01T13:22:09;4.22;;;3.40;;
21661;SDS011;10992;48.170;8.596;2023-06-01T13:24:36;6.88;;;3.72;;
21661;SDS011;10992;48.170;8.596;2023-06-01T13:27:06;5.88;;;3.70;;
21661;SDS011;10992;48.170;8.596;2023-06-01T13:29:33;5.00;;;3.50;;
21661;SDS011;10992;48.170;8.596;2023-06-01T13:32:00;5.70;;;3.63;;
21661;SDS011;10992;48.170;8.596;2023-06-01T13:34:27;5.07;;;3.70;;
21661;SDS011;10992;48.170;8.596;2023-06-01T13:36:54;5.47;;;3.63;;
21661;SDS011;10992;48.170;8.596;2023-06-01T13:39:23;8.30;;;3.78;;
21661;SDS011;10992;48.170;8.596;2023-06-01T13:41:51;8.13;;;4.10;;
21661;SDS011;10992;48.170;8.596;2023-06-01T13:44:17;4.95;;;3.63;;
21661;SDS011;10992;48.170;8.596;2023-06-01T13:46:45;6.80;;;4.13;;
21661;SDS011;10992;48.170;8.596;2023-06-01T13:49:12;5.22;;;3.58;;
21661;SDS011;10992;48.170;8.596;2023-06-01T13:51:39;6.22;;;3.60;;
21661;SDS011;10992;48.170;8.596;2023-06-01T13:54:06;5.30;;;3.72;;
21661;SDS011;10992;48.170;8.596;2023-06-01T13:56:33;6.75;;;3.78;;
21661;SDS011;10992;48.170;8.596;2023-06-01T13:59:00;7.18;;;3.92;;
21661;SDS011;10992;48.170;8.596;2023-06-01T14:01:27;7.05;;;4.05;;
21661;SDS011;10992;48.170;8.596;2023-06-01T14:03:54;8.40;;;4.15;;
21661;SDS011;10992;48.170;8.596;2023-06-01T14:06:22;7.05;;;4.00;;
21661;SDS011;10992;48.170;8.596;2023-06-01T14:08:48;5.95;;;3.83;;
21661;SDS011;10992;48.170;8.596;2023-06-01T14:11:16;6.32;;;3.67;;
21661;SDS011;10992;48.170;8.596;2023-06-01T14:13:43;5.85;;;3.65;;
21661;SDS011;10992;48.170;8.596;2023-06-01T14:16:10;4.90;;;3.70;;
21661;SDS011;10992;48.170;8.596;2023-06-01T14:18:37;5.25;;;3.67;;
21661;SDS011;10992;48.170;8.596;2023-06-01T14:21:04;5.75;;;3.75;;
21661;SDS011;10992;48.170;8.596;2023-06-01T14:23:31;8.00;;;3.50;;
21661;SDS011;10992;48.170;8.596;2023-06-01T14:25:58;5.22;;;3.70;;
21661;SDS011;10992;48.170;8.596;2023-06-01T14:28:25;6.28;;;4.22;;
21661;SDS011;10992;48.170;8.596;2023-06-01T14:30:53;6.80;;;3.65;;
21661;SDS011;10992;48.170;8.596;2023-06-01T14:33:20;5.18;;;3.47;;
21661;SDS011;10992;48.170;8.596;2023-06-01T14:35:47;5.10;;;3.55;;
21661;SDS011;10992;48.170;8.596;2023-06-01T14:38:14;6.88;;;4.20;;
21661;SDS011;10992;48.170;8.596;2023-06-01T14:40:41;5.03;;;3.47;;
21661;SDS011;10992;48.170;8.596;2023-06-01T14:43:07;5.25;;;3.58;;
21661;SDS011;10992;48.170;8.596;2023-06-01T14:45:34;6.25;;;3.60;;
21661;SDS011;10992;48.170;8.596;2023-06-01T14:48:01;5.18;;;3.60;;
21661;SDS011;10992;48.170;8.596;2023-06-01T14:50:28;5.70;;;3.60;;
21661;SDS011;10992;48.170;8.596;2023-06-01T14:52:55;6.18;;;4.05;;
21661;SDS011;10992;48.170;8.596;2023-06-01T14:55:25;6.25;;;4.38;;
21661;SDS011;10992;48.170;8.596;2023-06-01T14:57:54;5.32;;;4.00;;
21661;SDS011;10992;48.170;8.596;2023-06-01T15:00:21;6.70;;;3.50;;
21661;SDS011;10992;48.170;8.596;2023-06-01T15:02:48;6.10;;;3.53;;
21661;SDS011;10992;48.170;8.596;2023-06-01T15:05:15;7.20;;;3.70;;
21661;SDS011;10992;48.170;8.596;2023-06-01T15:07:42;6.75;;;3.72;;
21661;SDS011;10992;48.170;8.596;2023-06-01T15:10:10;5.40;;;3.50;;
21661;SDS011;10992;48.170;8.596;2023-06-01T15:12:37;6.53;;;4.15;;
21661;SDS011;10992;48.170;8.596;2023-06-01T15:15:04;4.93;;;3.88;;
21661;SDS011;10992;48.170;8.596;2023-06-01T15:17:31;4.70;;;3.35;;
21661;SDS011;10992;48.170;8.596;2023-06-01T15:19:58;7.72;;;4.28;;
21661;SDS011;10992;48.170;8.596;2023-06-01T15:22:25;7.28;;;3.95;;
21661;SDS011;10992;48.170;8.596;2023-06-01T15:24:52;5.38;;;3.75;;
21661;SDS011;10992;48.170;8.596;2023-06-01T15:27:19;6.18;;;3.70;;
21661;SDS011;10992;48.170;8.596;2023-06-01T15:29:46;7.75;;;3.90;;
21661;SDS011;10992;48.170;8.596;2023-06-01T15:32:13;5.88;;;3.70;;
21661;SDS011;10992;48.170;8.596;2023-06-01T15:34:40;5.55;;;3.67;;
21661;SDS011;10992;48.170;8.596;2023-06-01T15:37:09;7.22;;;3.88;;